テルアビブ / ベン・グリオン の空港の天気 - METARとTAF

ベン・グリオン国際空港(テルアビブ) ( LLBG / TLV ) - イスラエル ロード / テルアビブ
飛行場実況気象(Metar)
観測時間07/22 21:20 IDT (07/22 18:20 UTC)
風向・風速不定 1m/s
視程10km以上
天気現象
少しの雲 雲底高度 460m
気温27℃
湿度79%
気圧1007hPa
METARLLBG 221820Z VRB02KT 9999 FEW015 27/23 Q1007 NOSIG
過去の天気等 Google飛行場航空写真 Wunderground天気予報

過去48時間のMETAR

飛行場予報(TAF)
発表時間: 7/22 20:05 IDT (7/22 17:05 UTC)
予報対象時間: 22日21時 IDT ~ 23日21時 IDT
風向・風速不定 2m/s
視程10km以上
少しの雲 雲底高度 610m
22日22時 IDT ~ 22日24時 IDT に徐々に
風向・風速南 3m/s
全天の4割程度の雲 雲底高度 610m
23日3時 IDT から 確率 40% で
全天の8割程度の雲 雲底高度 490m
23日10時 IDT ~ 23日12時 IDT に徐々に
風向・風速西南西 5m/s
少しの雲 雲底高度 910m
TAF LLBG 221705Z 2218/2318 VRB04KT 9999 FEW020
BECMG 2219/2221 18005KT SCT020
PROB40 2300/2305 BKN016
BECMG 2307/2309 25010KT FEW030 TX32/2312Z TN25/2303Z